Time;durP1;ratioP1;P1;durP2;ratioP2;P2;SDS_P1;SDS_P2;PMS_P1;PMS_P2;Temp;Humidity;BMP_temperature;BMP_pressure;BME280_temperature;BME280_humidity;BME280_pressure;Samples;Min_cycle;Max_cycle;Signal;HPM_P1;HPM_P2
2024/01/21 00:00:47;;;;;;;9.15;5.82;;;1.00;99.90;;;;;;5104760;28;20118;-80
2024/01/21 00:03:12;;;;;;;11.57;7.57;;;1.00;99.90;;;;;;5123725;28;20103;-79
2024/01/21 00:05:38;;;;;;;11.32;6.75;;;1.00;99.90;;;;;;5123859;28;20042;-80
2024/01/21 00:08:04;;;;;;;12.30;6.90;;;0.90;99.90;;;;;;5088618;28;20119;-80
2024/01/21 00:10:29;;;;;;;13.57;7.57;;;0.90;99.90;;;;;;5103445;28;20126;-79
2024/01/21 00:12:55;;;;;;;12.25;7.07;;;1.00;99.90;;;;;;5104482;28;20047;-79
2024/01/21 00:15:22;;;;;;;11.90;7.28;;;0.90;99.90;;;;;;5103760;28;20441;-81
2024/01/21 00:17:48;;;;;;;14.20;7.05;;;1.00;99.90;;;;;;5103263;28;20035;-80
2024/01/21 00:20:14;;;;;;;12.10;7.28;;;1.00;99.90;;;;;;5106597;28;20050;-79
2024/01/21 00:22:40;;;;;;;15.25;7.95;;;1.00;99.90;;;;;;5110897;28;20552;-79
2024/01/21 00:25:09;;;;;;;10.52;6.72;;;1.00;99.90;;;;;;5112534;28;20647;-79
2024/01/21 00:27:35;;;;;;;13.45;7.90;;;1.00;99.90;;;;;;5111800;28;20047;-81
2024/01/21 00:30:02;;;;;;;12.68;7.63;;;1.00;99.90;;;;;;5130202;28;20102;-80
2024/01/21 00:32:27;;;;;;;14.60;8.95;;;1.00;99.90;;;;;;5131533;28;20036;-80
2024/01/21 00:34:53;;;;;;;14.00;7.28;;;1.00;99.90;;;;;;5128698;28;20039;-79
2024/01/21 00:37:19;;;;;;;15.30;8.55;;;0.90;99.90;;;;;;5111792;28;20051;-80
2024/01/21 00:39:45;;;;;;;13.95;7.28;;;1.00;99.90;;;;;;5112232;28;20035;-81
2024/01/21 00:42:10;;;;;;;11.90;7.28;;;0.90;99.90;;;;;;5131051;28;20095;-81
2024/01/21 00:44:37;;;;;;;12.27;7.45;;;1.00;99.90;;;;;;5093341;28;20040;-80
2024/01/21 00:47:03;;;;;;;11.70;7.82;;;1.00;99.90;;;;;;5111661;28;20043;-80
2024/01/21 00:49:30;;;;;;;14.02;7.82;;;1.00;99.90;;;;;;5109497;28;20039;-80
2024/01/21 00:51:56;;;;;;;11.38;7.70;;;0.90;99.90;;;;;;5128997;28;20044;-79
2024/01/21 00:54:22;;;;;;;13.25;6.78;;;0.90;99.90;;;;;;5110610;28;20044;-80
2024/01/21 00:56:47;;;;;;;11.25;6.85;;;1.00;99.90;;;;;;5130649;28;20100;-80
2024/01/21 00:59:13;;;;;;;12.48;7.15;;;0.90;99.90;;;;;;5113437;28;20031;-79
2024/01/21 01:01:39;;;;;;;13.05;7.05;;;1.00;99.90;;;;;;5131202;28;20040;-80
2024/01/21 01:04:05;;;;;;;12.93;7.50;;;0.90;99.90;;;;;;5131986;28;20039;-80
2024/01/21 01:06:35;;;;;;;12.75;7.28;;;1.00;99.90;;;;;;5113051;28;20044;-80
2024/01/21 01:09:00;;;;;;;13.13;7.20;;;1.00;99.90;;;;;;5130879;28;20035;-79
2024/01/21 01:11:27;;;;;;;11.38;6.85;;;1.00;99.90;;;;;;5116356;28;20518;-80
2024/01/21 01:13:53;;;;;;;13.27;7.82;;;1.00;99.90;;;;;;5093754;28;20044;-80
2024/01/21 01:16:18;;;;;;;11.50;6.50;;;1.00;99.90;;;;;;5111311;28;20055;-80
2024/01/21 01:18:44;;;;;;;11.93;6.82;;;1.00;99.90;;;;;;5131403;28;20035;-80
2024/01/21 01:21:12;;;;;;;12.45;6.93;;;1.00;99.90;;;;;;5133135;28;20048;-80
2024/01/21 01:23:38;;;;;;;11.77;7.15;;;1.00;99.90;;;;;;5114395;28;20519;-80
2024/01/21 01:26:04;;;;;;;12.15;6.55;;;1.00;99.90;;;;;;5114978;28;20035;-79
2024/01/21 01:28:31;;;;;;;11.35;7.00;;;1.00;99.90;;;;;;5132995;28;20118;-80
2024/01/21 01:30:57;;;;;;;10.50;5.93;;;1.00;99.90;;;;;;5094201;28;20044;-79
2024/01/21 01:33:24;;;;;;;12.25;5.85;;;1.00;99.90;;;;;;5127368;28;20047;-80
2024/01/21 01:35:49;;;;;;;10.68;6.13;;;1.00;99.90;;;;;;5109855;28;20110;-80
2024/01/21 01:38:15;;;;;;;10.77;6.10;;;1.10;99.90;;;;;;5111248;28;20039;-81
2024/01/21 01:40:40;;;;;;;9.10;5.57;;;1.20;99.90;;;;;;5110745;28;20065;-80
2024/01/21 01:43:06;;;;;;;10.20;6.03;;;1.10;99.90;;;;;;5130077;28;20163;-80
2024/01/21 01:45:32;;;;;;;11.00;5.85;;;1.10;99.90;;;;;;5095122;28;20044;-79
2024/01/21 01:47:58;;;;;;;12.38;5.72;;;1.10;99.90;;;;;;5130160;28;20453;-80
2024/01/21 01:50:25;;;;;;;8.30;5.10;;;1.20;99.90;;;;;;5130864;28;20070;-80
2024/01/21 01:52:51;;;;;;;8.52;5.10;;;1.20;99.90;;;;;;5132110;28;20545;-79
2024/01/21 01:55:18;;;;;;;11.13;5.75;;;1.20;99.90;;;;;;5132636;28;20055;-81
2024/01/21 01:57:47;;;;;;;12.20;5.80;;;1.20;99.90;;;;;;5133252;28;20032;-79
2024/01/21 02:00:14;;;;;;;7.95;4.72;;;1.20;99.90;;;;;;5111744;28;20040;-80
2024/01/21 02:02:43;;;;;;;7.07;5.13;;;1.30;99.90;;;;;;5111269;28;20057;-80
2024/01/21 02:05:09;;;;;;;7.40;4.55;;;1.30;99.90;;;;;;5131045;28;20071;-80
2024/01/21 02:07:35;;;;;;;9.30;5.13;;;1.30;99.90;;;;;;5130077;28;20057;-80
2024/01/21 02:10:01;;;;;;;9.32;4.93;;;1.30;99.90;;;;;;5130523;28;20564;-80
2024/01/21 02:12:28;;;;;;;9.40;5.75;;;1.30;99.90;;;;;;5133854;28;20035;-80
2024/01/21 02:14:54;;;;;;;9.65;4.32;;;1.30;99.90;;;;;;5112783;28;20146;-79
2024/01/21 02:17:19;;;;;;;8.32;4.22;;;1.30;99.90;;;;;;5112547;28;20031;-80
2024/01/21 02:19:45;;;;;;;6.78;3.88;;;1.30;99.90;;;;;;5127360;28;20035;-80
2024/01/21 02:22:12;;;;;;;7.18;3.85;;;1.40;99.90;;;;;;5128660;28;20036;-80
2024/01/21 02:24:38;;;;;;;9.75;4.43;;;1.40;99.90;;;;;;5132772;28;20050;-80
2024/01/21 02:27:04;;;;;;;7.63;4.05;;;1.30;99.90;;;;;;5131746;28;20032;-82
2024/01/21 02:29:30;;;;;;;7.75;4.55;;;1.40;99.90;;;;;;5113640;28;20050;-80
2024/01/21 02:31:57;;;;;;;7.80;4.68;;;1.30;99.90;;;;;;5128840;28;20031;-80
2024/01/21 02:34:23;;;;;;;7.25;4.35;;;1.30;99.90;;;;;;5110768;28;20042;-80
2024/01/21 02:36:49;;;;;;;7.20;4.10;;;1.30;99.90;;;;;;5129266;28;20063;-80
2024/01/21 02:39:15;;;;;;;7.57;4.32;;;1.30;99.90;;;;;;5110888;28;20063;-80
2024/01/21 02:41:40;;;;;;;6.60;3.75;;;1.20;99.90;;;;;;5110519;28;20051;-81
2024/01/21 02:44:06;;;;;;;5.60;3.45;;;1.30;99.90;;;;;;5128028;28;20098;-80
2024/01/21 02:46:32;;;;;;;5.60;3.50;;;1.20;99.90;;;;;;5129653;28;20071;-80
2024/01/21 02:48:57;;;;;;;7.28;4.75;;;1.30;99.90;;;;;;5110454;28;20070;-80
2024/01/21 02:51:23;;;;;;;8.23;3.53;;;1.20;99.90;;;;;;5129014;28;20032;-80
2024/01/21 02:53:49;;;;;;;5.72;3.30;;;1.30;99.90;;;;;;5107966;28;20071;-80
2024/01/21 02:56:23;;;;;;;5.55;3.05;;;1.20;99.90;;;;;;5107571;28;20036;-79
2024/01/21 02:58:52;;;;;;;6.30;3.72;;;1.20;99.90;;;;;;5089660;28;20077;-80
2024/01/21 03:01:19;;;;;;;8.07;3.33;;;1.20;99.90;;;;;;5126294;28;20045;-81
2024/01/21 03:03:45;;;;;;;7.50;3.03;;;1.20;99.90;;;;;;5107872;28;20050;-80
2024/01/21 03:06:11;;;;;;;5.60;3.00;;;1.20;99.90;;;;;;5125910;28;20046;-80
2024/01/21 03:08:37;;;;;;;5.97;3.10;;;1.30;99.90;;;;;;5124846;28;20036;-80
2024/01/21 03:11:03;;;;;;;6.53;3.00;;;1.30;99.90;;;;;;5126377;28;20047;-81
2024/01/21 03:13:29;;;;;;;4.10;2.80;;;1.30;99.90;;;;;;5124908;28;20044;-80
2024/01/21 03:15:55;;;;;;;4.90;2.55;;;1.30;99.90;;;;;;5107044;28;20032;-81
2024/01/21 03:18:21;;;;;;;5.70;2.80;;;1.30;99.90;;;;;;5088587;28;20059;-81
2024/01/21 03:20:47;;;;;;;4.70;2.47;;;1.40;99.90;;;;;;5106040;28;20092;-80
2024/01/21 03:23:13;;;;;;;4.32;2.83;;;1.40;99.90;;;;;;5106754;28;20078;-80
2024/01/21 03:25:39;;;;;;;4.47;2.30;;;1.40;99.90;;;;;;5124081;28;20031;-80
2024/01/21 03:28:05;;;;;;;4.10;1.92;;;1.40;99.90;;;;;;5104734;28;20106;-80
2024/01/21 03:30:30;;;;;;;4.18;2.35;;;1.50;99.90;;;;;;5124072;28;20031;-80
2024/01/21 03:32:56;;;;;;;6.97;2.50;;;1.50;99.90;;;;;;5123364;28;20094;-79
2024/01/21 03:35:21;;;;;;;4.82;2.63;;;1.50;99.90;;;;;;5123650;28;20436;-81
2024/01/21 03:37:47;;;;;;;4.97;2.55;;;1.60;99.90;;;;;;5123871;28;20110;-81
2024/01/21 03:40:13;;;;;;;5.18;2.00;;;1.50;99.90;;;;;;5085829;28;20434;-80
2024/01/21 03:42:39;;;;;;;4.93;2.33;;;1.50;99.90;;;;;;5102628;28;20041;-80
2024/01/21 03:45:05;;;;;;;4.78;2.17;;;1.50;99.90;;;;;;5122662;28;20039;-80
2024/01/21 03:47:31;;;;;;;2.95;1.85;;;1.50;99.90;;;;;;5122881;28;20050;-80
2024/01/21 03:49:57;;;;;;;5.32;2.03;;;1.50;99.90;;;;;;5122162;28;20043;-80
2024/01/21 03:52:23;;;;;;;3.65;1.95;;;1.50;99.90;;;;;;5103872;28;20035;-79
2024/01/21 03:54:48;;;;;;;3.13;1.95;;;1.50;99.90;;;;;;5103357;28;20036;-80
2024/01/21 03:57:14;;;;;;;3.35;1.98;;;1.40;99.90;;;;;;5103461;28;20075;-81
2024/01/21 03:59:40;;;;;;;4.00;1.67;;;1.50;99.90;;;;;;5086302;28;20056;-80
2024/01/21 04:02:06;;;;;;;4.57;2.10;;;1.40;99.90;;;;;;5139590;22;21107;-71
2024/01/21 04:04:31;;;;;;;3.92;1.80;;;1.40;99.90;;;;;;5112088;28;20043;-71
2024/01/21 04:06:57;;;;;;;4.72;1.70;;;1.40;99.90;;;;;;5112137;28;20047;-71
2024/01/21 04:09:23;;;;;;;2.38;1.45;;;1.40;99.90;;;;;;5093397;28;20050;-70
2024/01/21 04:11:52;;;;;;;5.28;1.60;;;1.40;99.90;;;;;;5112103;28;20040;-70
2024/01/21 04:14:17;;;;;;;4.63;1.92;;;1.30;99.90;;;;;;5093639;28;20126;-71
2024/01/21 04:16:43;;;;;;;3.25;1.90;;;1.30;99.90;;;;;;5112163;28;20467;-71
2024/01/21 04:19:09;;;;;;;3.08;1.63;;;1.30;99.90;;;;;;5111997;28;20036;-71
2024/01/21 04:21:36;;;;;;;2.47;1.52;;;1.30;99.90;;;;;;5093912;28;20027;-71
2024/01/21 04:24:02;;;;;;;3.58;1.70;;;1.30;99.90;;;;;;5111882;28;20035;-71
2024/01/21 04:26:28;;;;;;;3.20;1.67;;;1.30;99.90;;;;;;5112004;28;20039;-71
2024/01/21 04:28:54;;;;;;;3.80;1.60;;;1.30;99.90;;;;;;5111624;28;20032;-71
2024/01/21 04:31:20;;;;;;;3.40;1.65;;;1.30;99.90;;;;;;5112150;28;20035;-71
2024/01/21 04:33:45;;;;;;;2.47;1.80;;;1.30;99.90;;;;;;5111880;28;20103;-71
2024/01/21 04:36:18;;;;;;;2.83;1.90;;;1.30;99.90;;;;;;5111991;28;20380;-71
2024/01/21 04:38:44;;;;;;;3.10;1.95;;;1.30;99.90;;;;;;5111573;28;20630;-71
2024/01/21 04:41:12;;;;;;;4.82;1.70;;;1.30;99.90;;;;;;5093566;28;20036;-70
2024/01/21 04:43:38;;;;;;;2.67;1.77;;;1.30;99.90;;;;;;5111700;28;20410;-71
2024/01/21 04:46:04;;;;;;;2.70;1.40;;;1.30;99.90;;;;;;5111886;28;20044;-71
2024/01/21 04:48:29;;;;;;;3.50;1.60;;;1.30;99.90;;;;;;5111613;28;20430;-71
2024/01/21 04:50:55;;;;;;;1.90;1.15;;;1.30;99.90;;;;;;5111863;28;20612;-71
2024/01/21 04:53:20;;;;;;;2.13;1.20;;;1.40;99.90;;;;;;5111648;28;20122;-71
2024/01/21 04:55:46;;;;;;;1.77;1.23;;;1.40;99.90;;;;;;5093514;28;20032;-71
2024/01/21 04:58:12;;;;;;;2.53;1.08;;;1.40;99.90;;;;;;5093372;28;20100;-71
2024/01/21 05:00:37;;;;;;;2.78;1.60;;;1.50;99.90;;;;;;5111735;28;20100;-71
2024/01/21 05:03:03;;;;;;;3.83;1.50;;;1.50;99.90;;;;;;5111517;28;20566;-71
2024/01/21 05:05:29;;;;;;;2.47;1.33;;;1.50;99.90;;;;;;5112041;28;20515;-71
2024/01/21 05:07:54;;;;;;;3.53;1.38;;;1.50;99.90;;;;;;5097478;28;20455;-71
2024/01/21 05:10:20;;;;;;;2.80;1.70;;;1.50;99.90;;;;;;5115607;28;20042;-71
2024/01/21 05:12:45;;;;;;;2.40;1.40;;;1.60;99.90;;;;;;5115455;28;20452;-71
2024/01/21 05:15:11;;;;;;;1.80;1.15;;;1.60;99.90;;;;;;5115610;28;20035;-71
2024/01/21 05:17:36;;;;;;;2.53;1.10;;;1.60;99.90;;;;;;5115819;28;20091;-71
2024/01/21 05:20:03;;;;;;;2.25;1.30;;;1.60;99.90;;;;;;5116030;28;20036;-71
2024/01/21 05:22:29;;;;;;;2.10;1.33;;;1.60;99.90;;;;;;5115772;28;20119;-71
2024/01/21 05:24:55;;;;;;;3.00;1.80;;;1.60;99.90;;;;;;5115618;28;20051;-71
2024/01/21 05:27:21;;;;;;;3.83;1.70;;;1.70;99.90;;;;;;5115146;28;20054;-71
2024/01/21 05:29:47;;;;;;;3.90;1.33;;;1.60;99.90;;;;;;5115151;28;20173;-71
2024/01/21 05:32:13;;;;;;;2.78;1.30;;;1.70;99.90;;;;;;5115158;28;20119;-71
2024/01/21 05:34:38;;;;;;;2.05;1.10;;;1.70;99.90;;;;;;5096728;28;20051;-71
2024/01/21 05:37:05;;;;;;;1.42;1.00;;;1.70;99.90;;;;;;5114966;28;20035;-70
2024/01/21 05:39:31;;;;;;;2.70;1.42;;;1.60;99.90;;;;;;5114752;28;20040;-71
2024/01/21 05:42:04;;;;;;;3.88;1.60;;;1.60;99.90;;;;;;5096788;28;20105;-71
2024/01/21 05:44:30;;;;;;;3.83;1.80;;;1.60;99.90;;;;;;5115024;28;20040;-70
2024/01/21 05:46:56;;;;;;;3.60;1.80;;;1.60;99.90;;;;;;5114794;28;20054;-71
2024/01/21 05:49:23;;;;;;;3.38;1.70;;;1.60;99.90;;;;;;5114713;28;20127;-71
2024/01/21 05:51:49;;;;;;;3.83;1.70;;;1.60;99.90;;;;;;5114724;28;20071;-71
2024/01/21 05:54:14;;;;;;;2.88;1.80;;;1.60;99.90;;;;;;5114503;28;20435;-70
2024/01/21 05:56:40;;;;;;;4.45;2.08;;;1.60;99.90;;;;;;5096570;28;20047;-71
2024/01/21 05:59:07;;;;;;;3.17;1.70;;;1.60;99.90;;;;;;5096087;28;20039;-70
2024/01/21 06:01:32;;;;;;;3.78;1.77;;;1.70;99.90;;;;;;5114415;28;20491;-70
2024/01/21 06:03:58;;;;;;;3.83;2.03;;;1.70;99.90;;;;;;5114269;28;20115;-71
2024/01/21 06:06:23;;;;;;;4.20;1.80;;;1.70;99.90;;;;;;5114462;28;20118;-71
2024/01/21 06:08:49;;;;;;;3.17;1.73;;;1.70;99.90;;;;;;5114058;28;20491;-71
2024/01/21 06:11:15;;;;;;;4.18;2.10;;;1.70;99.90;;;;;;5114566;28;20035;-70
2024/01/21 06:13:40;;;;;;;3.97;2.10;;;1.70;99.90;;;;;;5114324;28;20071;-71
2024/01/21 06:16:06;;;;;;;3.15;1.90;;;1.80;99.90;;;;;;5114304;28;20435;-71
2024/01/21 06:18:32;;;;;;;3.72;2.30;;;1.80;99.90;;;;;;5113304;28;20040;-71
2024/01/21 06:20:57;;;;;;;4.20;2.13;;;1.80;99.90;;;;;;5096146;28;20043;-71
2024/01/21 06:23:23;;;;;;;4.40;2.30;;;1.80;99.90;;;;;;5114013;28;20519;-71
2024/01/21 06:25:49;;;;;;;4.72;2.42;;;1.80;99.90;;;;;;5113928;28;20042;-71
2024/01/21 06:28:16;;;;;;;4.80;2.85;;;1.80;99.90;;;;;;5095817;28;20113;-71
2024/01/21 06:30:42;;;;;;;9.23;3.00;;;1.80;99.90;;;;;;5113909;28;20043;-71
2024/01/21 06:33:07;;;;;;;4.32;3.00;;;1.80;99.90;;;;;;5096021;28;20562;-71
2024/01/21 06:35:33;;;;;;;5.10;2.53;;;1.80;99.90;;;;;;5095620;28;20552;-71
2024/01/21 06:37:58;;;;;;;5.22;2.92;;;1.80;99.90;;;;;;5113910;28;20027;-71
2024/01/21 06:40:24;;;;;;;5.18;2.78;;;1.80;99.90;;;;;;5114035;28;20487;-71
2024/01/21 06:42:50;;;;;;;5.82;3.17;;;1.90;99.90;;;;;;5113782;28;20036;-71
2024/01/21 06:45:15;;;;;;;5.22;2.60;;;1.90;99.90;;;;;;5095565;28;20085;-71
2024/01/21 06:47:42;;;;;;;6.47;3.20;;;1.90;99.90;;;;;;5113764;28;20035;-71
2024/01/21 06:50:09;;;;;;;4.82;2.90;;;1.90;99.90;;;;;;5113552;28;20041;-71
2024/01/21 06:52:35;;;;;;;6.18;2.70;;;1.90;99.90;;;;;;5113377;28;20474;-71
2024/01/21 06:55:01;;;;;;;5.55;2.80;;;1.90;99.90;;;;;;5095083;28;20071;-71
2024/01/21 06:57:26;;;;;;;5.60;3.45;;;1.90;99.90;;;;;;5095063;28;20036;-71
2024/01/21 06:59:52;;;;;;;6.40;3.05;;;1.90;99.90;;;;;;5095141;28;20058;-71
2024/01/21 07:02:17;;;;;;;8.20;3.67;;;1.90;99.90;;;;;;5113151;28;20050;-72
2024/01/21 07:04:43;;;;;;;5.30;3.15;;;1.80;99.90;;;;;;5113189;28;20039;-71
2024/01/21 07:07:09;;;;;;;5.97;3.38;;;1.80;99.90;;;;;;5094969;28;20043;-71
2024/01/21 07:09:34;;;;;;;6.18;3.63;;;1.80;99.90;;;;;;5094629;28;20144;-71
2024/01/21 07:12:00;;;;;;;7.38;3.90;;;1.90;99.90;;;;;;5113166;28;20042;-71
2024/01/21 07:14:26;;;;;;;6.40;4.07;;;1.90;99.90;;;;;;5094700;28;20485;-70
2024/01/21 07:16:52;;;;;;;8.02;4.20;;;1.90;99.90;;;;;;5094638;28;20106;-71
2024/01/21 07:19:17;;;;;;;8.57;3.47;;;1.90;99.90;;;;;;5112838;28;20122;-71
2024/01/21 07:21:43;;;;;;;5.70;3.17;;;1.90;99.90;;;;;;5112734;28;20032;-71
2024/01/21 07:24:08;;;;;;;6.70;3.63;;;1.90;99.90;;;;;;5113093;28;20043;-70
2024/01/21 07:26:34;;;;;;;7.55;3.63;;;1.90;99.90;;;;;;5112882;28;20516;-71
2024/01/21 07:28:59;;;;;;;6.35;3.80;;;1.90;99.90;;;;;;5111866;28;20036;-71
2024/01/21 07:31:25;;;;;;;7.93;4.10;;;1.90;99.90;;;;;;5094281;28;20051;-71
2024/01/21 07:33:51;;;;;;;7.60;4.03;;;1.90;99.90;;;;;;5112518;28;20043;-70
2024/01/21 07:36:16;;;;;;;6.75;3.72;;;2.00;99.90;;;;;;5112450;28;20027;-71
2024/01/21 07:38:42;;;;;;;5.75;3.53;;;2.00;99.90;;;;;;5112263;28;20031;-71
2024/01/21 07:41:08;;;;;;;6.10;4.10;;;2.00;99.90;;;;;;5112707;28;20032;-71
2024/01/21 07:43:34;;;;;;;6.85;4.32;;;2.00;99.90;;;;;;5112476;28;20101;-71
2024/01/21 07:45:59;;;;;;;7.97;4.32;;;2.00;99.90;;;;;;5112528;28;20040;-71
2024/01/21 07:48:25;;;;;;;5.32;3.75;;;2.00;99.90;;;;;;5112205;28;20039;-71
2024/01/21 07:50:51;;;;;;;6.10;3.67;;;2.00;99.90;;;;;;5112176;28;20043;-71
2024/01/21 07:53:20;;;;;;;6.80;4.00;;;2.00;99.90;;;;;;5106372;28;20027;-71
2024/01/21 07:55:45;;;;;;;8.10;4.60;;;2.00;99.90;;;;;;5112006;28;20023;-71
2024/01/21 07:58:12;;;;;;;7.57;4.35;;;2.00;99.90;;;;;;5094035;28;20407;-71
2024/01/21 08:00:38;;;;;;;7.68;3.83;;;2.00;99.90;;;;;;5112057;28;20422;-71
2024/01/21 08:03:05;;;;;;;6.65;4.00;;;2.00;99.90;;;;;;5112150;28;20114;-71
2024/01/21 08:05:33;;;;;;;6.90;4.05;;;2.00;99.90;;;;;;5112065;28;20052;-71
2024/01/21 08:07:58;;;;;;;8.43;4.57;;;2.00;99.90;;;;;;5112299;28;20046;-71
2024/01/21 08:10:24;;;;;;;7.72;4.43;;;2.00;99.90;;;;;;5111968;28;20398;-71
2024/01/21 08:12:50;;;;;;;8.93;3.80;;;2.00;99.90;;;;;;5111664;28;20097;-71
2024/01/21 08:15:16;;;;;;;7.53;4.55;;;2.00;99.90;;;;;;5111992;28;20036;-71
2024/01/21 08:17:41;;;;;;;7.07;4.63;;;2.00;99.90;;;;;;5093680;28;20039;-71
2024/01/21 08:20:07;;;;;;;7.18;4.72;;;2.00;99.90;;;;;;5093578;28;20035;-71
2024/01/21 08:22:33;;;;;;;10.52;4.07;;;2.00;99.90;;;;;;5111777;28;20398;-70
2024/01/21 08:24:59;;;;;;;8.75;4.00;;;2.00;99.90;;;;;;5111752;28;20122;-71
2024/01/21 08:27:24;;;;;;;10.70;4.72;;;2.10;99.90;;;;;;5111090;28;20044;-71
2024/01/21 08:29:50;;;;;;;7.35;4.00;;;2.00;99.90;;;;;;5111467;28;20042;-71
2024/01/21 08:32:15;;;;;;;10.23;4.57;;;2.10;99.90;;;;;;5093725;28;20122;-71
2024/01/21 08:34:41;;;;;;;7.00;4.32;;;2.10;99.90;;;;;;5111655;28;20047;-71
2024/01/21 08:37:06;;;;;;;7.13;4.10;;;2.20;99.90;;;;;;5111710;28;20474;-71
2024/01/21 08:39:32;;;;;;;7.80;4.65;;;2.20;99.90;;;;;;5111762;28;20032;-71
2024/01/21 08:41:58;;;;;;;7.55;3.78;;;2.20;99.90;;;;;;5114663;28;20124;-71
2024/01/21 08:44:23;;;;;;;8.88;4.32;;;2.20;99.90;;;;;;5115960;28;20051;-71
2024/01/21 08:46:49;;;;;;;9.57;4.80;;;2.20;99.90;;;;;;5115661;28;20134;-71
2024/01/21 08:49:14;;;;;;;8.77;4.57;;;2.20;99.90;;;;;;5111921;28;20032;-73
2024/01/21 08:51:41;;;;;;;7.82;4.38;;;2.20;99.90;;;;;;5102145;28;20088;-73
2024/01/21 08:54:07;;;;;;;10.05;4.28;;;2.20;99.90;;;;;;5103861;27;20070;-71
2024/01/21 08:56:35;;;;;;;7.65;4.20;;;2.20;99.90;;;;;;5109674;28;20043;-70
2024/01/21 08:59:01;;;;;;;7.57;4.63;;;2.20;99.90;;;;;;5115106;28;20061;-70
2024/01/21 09:01:27;;;;;;;7.95;4.63;;;2.20;99.90;;;;;;5115392;28;20032;-70
2024/01/21 09:03:52;;;;;;;6.88;4.43;;;2.20;99.90;;;;;;5082422;28;20127;-70
2024/01/21 09:06:19;;;;;;;7.60;4.55;;;2.30;99.90;;;;;;5097249;28;20043;-70
2024/01/21 09:08:44;;;;;;;7.20;4.63;;;2.40;99.90;;;;;;5115125;28;20469;-71
2024/01/21 09:11:11;;;;;;;8.15;4.45;;;2.40;99.90;;;;;;5115080;28;20040;-71
2024/01/21 09:13:37;;;;;;;7.25;4.88;;;2.40;99.90;;;;;;5096993;28;20046;-71
2024/01/21 09:16:04;;;;;;;8.23;4.00;;;2.50;99.90;;;;;;5096899;28;20071;-70
2024/01/21 09:18:30;;;;;;;8.82;4.82;;;2.50;99.90;;;;;;5115103;28;20031;-71
2024/01/21 09:20:58;;;;;;;7.85;4.53;;;2.40;99.90;;;;;;5115696;28;20036;-71
2024/01/21 09:23:23;;;;;;;7.68;4.32;;;2.40;99.90;;;;;;5097936;28;20050;-72
2024/01/21 09:25:49;;;;;;;8.50;5.03;;;2.40;99.90;;;;;;5085450;28;20411;-71
2024/01/21 09:28:15;;;;;;;10.25;4.72;;;2.40;99.90;;;;;;5113453;28;20521;-71
2024/01/21 09:30:41;;;;;;;8.00;4.47;;;2.50;99.90;;;;;;5116008;28;20407;-72
2024/01/21 09:33:06;;;;;;;6.20;3.70;;;2.50;99.90;;;;;;5114396;28;20031;-71
2024/01/21 09:35:32;;;;;;;8.40;4.68;;;2.60;99.90;;;;;;5114944;28;20023;-71
2024/01/21 09:37:58;;;;;;;7.30;4.75;;;2.60;99.90;;;;;;5114706;28;20040;-71
2024/01/21 09:40:23;;;;;;;7.70;4.00;;;2.70;99.90;;;;;;5108405;28;20028;-72
2024/01/21 09:42:50;;;;;;;8.13;4.90;;;2.70;99.90;;;;;;5088641;28;20040;-73
2024/01/21 09:45:17;;;;;;;7.97;4.50;;;2.80;99.90;;;;;;5096067;28;20495;-72
2024/01/21 09:47:43;;;;;;;7.57;4.53;;;2.80;99.90;;;;;;5114320;28;20521;-72
2024/01/21 09:50:10;;;;;;;10.55;5.05;;;2.80;99.90;;;;;;5114400;28;20038;-71
2024/01/21 09:52:36;;;;;;;8.27;4.38;;;2.80;99.90;;;;;;5113421;28;20071;-72
2024/01/21 09:55:02;;;;;;;7.95;4.35;;;2.80;99.90;;;;;;5114286;28;20098;-72
2024/01/21 09:57:28;;;;;;;6.82;4.93;;;2.80;99.90;;;;;;5114421;28;20031;-72
2024/01/21 09:59:55;;;;;;;9.02;4.25;;;2.80;99.90;;;;;;5102373;28;20190;-71
2024/01/21 10:02:22;;;;;;;9.48;5.18;;;2.80;99.90;;;;;;5128779;22;20174;-80
2024/01/21 10:04:48;;;;;;;8.23;5.05;;;2.80;99.90;;;;;;5080676;28;20078;-81
2024/01/21 10:07:14;;;;;;;10.05;5.15;;;2.80;99.90;;;;;;5085407;28;20048;-80
2024/01/21 10:09:40;;;;;;;7.80;4.60;;;2.80;99.90;;;;;;5067215;28;20570;-81
2024/01/21 10:12:07;;;;;;;8.43;4.65;;;2.90;99.90;;;;;;5101667;28;20043;-80
2024/01/21 10:14:33;;;;;;;8.25;4.72;;;3.00;99.90;;;;;;5100015;28;20031;-79
2024/01/21 10:17:00;;;;;;;7.45;4.88;;;3.00;99.90;;;;;;5105660;28;20036;-79
2024/01/21 10:19:33;;;;;;;7.80;5.03;;;3.10;99.90;;;;;;5102512;28;20032;-81
2024/01/21 10:22:16;;;;;;;8.90;4.97;;;3.10;99.90;;;;;;5124054;28;20155;-79
2024/01/21 10:24:43;;;;;;;9.18;5.20;;;3.10;99.90;;;;;;5102813;28;20093;-81
2024/01/21 10:27:13;;;;;;;8.70;5.03;;;3.10;99.90;;;;;;5086604;28;20035;-80
2024/01/21 10:29:44;;;;;;;8.38;5.18;;;3.10;99.90;;;;;;5113557;28;20084;-81
2024/01/21 10:32:11;;;;;;;11.27;5.43;;;3.10;99.90;;;;;;5131412;28;20036;-81
2024/01/21 10:34:43;;;;;;;11.95;5.40;;;3.20;99.90;;;;;;5115634;28;20048;-82
2024/01/21 10:37:09;;;;;;;11.43;6.00;;;3.20;99.90;;;;;;5105273;28;20036;-83
2024/01/21 10:39:37;;;;;;;9.50;5.55;;;3.40;99.90;;;;;;5119050;28;20103;-84
2024/01/21 10:42:05;;;;;;;11.93;5.00;;;3.50;99.90;;;;;;5101179;28;20042;-82
2024/01/21 10:44:34;;;;;;;7.68;4.72;;;3.50;99.90;;;;;;5101355;28;20044;-82
2024/01/21 10:47:01;;;;;;;9.05;5.85;;;3.60;99.90;;;;;;5119262;28;20031;-83
2024/01/21 10:49:27;;;;;;;7.75;5.10;;;3.60;99.90;;;;;;5102874;28;20031;-82
2024/01/21 10:51:55;;;;;;;8.70;5.10;;;3.70;99.90;;;;;;5109730;28;20043;-82
2024/01/21 10:54:22;;;;;;;13.20;5.25;;;3.60;99.90;;;;;;5125127;28;20032;-82
2024/01/21 10:56:48;;;;;;;8.90;4.97;;;3.70;99.90;;;;;;5120842;28;20043;-81
2024/01/21 10:59:14;;;;;;;10.63;5.43;;;3.70;99.90;;;;;;5103747;28;20052;-83
2024/01/21 11:01:42;;;;;;;9.35;5.30;;;3.70;99.90;;;;;;5095019;27;20035;-81
2024/01/21 11:04:12;;;;;;;11.25;6.35;;;3.70;99.90;;;;;;5100991;28;20467;-81
2024/01/21 11:06:51;;;;;;;11.73;5.88;;;3.80;99.90;;;;;;5121379;28;20051;-81
2024/01/21 11:09:22;;;;;;;9.95;5.90;;;3.80;99.90;;;;;;5123728;28;20168;-82
2024/01/21 11:11:49;;;;;;;9.35;5.40;;;3.90;99.90;;;;;;5100886;28;20062;-82
2024/01/21 11:14:44;;;;;;;12.35;6.78;;;3.90;99.90;;;;;;5110851;28;20039;-81
2024/01/21 11:17:13;;;;;;;9.68;5.40;;;3.90;99.90;;;;;;5087737;28;20047;-79
2024/01/21 11:19:44;;;;;;;8.18;5.30;;;3.90;99.90;;;;;;5093595;28;20507;-80
2024/01/21 11:22:11;;;;;;;9.50;5.20;;;3.90;99.90;;;;;;5107245;28;20035;-80
2024/01/21 11:24:37;;;;;;;10.93;6.05;;;3.90;99.90;;;;;;5106711;28;20517;-81
2024/01/21 11:27:04;;;;;;;10.75;5.75;;;3.90;99.90;;;;;;5086051;28;20043;-81
2024/01/21 11:29:33;;;;;;;8.43;5.32;;;4.00;99.90;;;;;;5082842;28;20490;-81
2024/01/21 11:32:01;;;;;;;9.20;6.03;;;4.00;99.90;;;;;;5121002;28;20050;-82
2024/01/21 11:34:38;;;;;;;7.50;5.90;;;4.00;99.90;;;;;;5116917;28;20614;-81
2024/01/21 11:37:04;;;;;;;9.43;5.25;;;4.00;99.90;;;;;;5088811;28;20039;-81
2024/01/21 11:39:30;;;;;;;10.82;5.85;;;4.00;99.90;;;;;;5101243;28;20441;-81
2024/01/21 11:41:55;;;;;;;7.00;5.32;;;4.10;99.90;;;;;;5102239;28;20031;-82
2024/01/21 11:44:22;;;;;;;13.20;6.18;;;4.10;99.90;;;;;;5102218;28;20039;-81
2024/01/21 11:46:49;;;;;;;9.38;5.22;;;4.10;99.90;;;;;;5102133;28;20048;-81
2024/01/21 11:49:15;;;;;;;10.27;5.45;;;4.10;99.90;;;;;;5125499;28;20546;-82
2024/01/21 11:51:42;;;;;;;9.85;5.45;;;4.10;99.90;;;;;;5079663;28;20063;-83
2024/01/21 11:54:08;;;;;;;9.15;5.90;;;4.10;99.90;;;;;;5099307;28;20054;-80
2024/01/21 11:56:37;;;;;;;9.52;5.43;;;4.10;99.90;;;;;;5107153;28;20031;-81
2024/01/21 11:59:06;;;;;;;12.07;5.90;;;4.10;99.90;;;;;;5126351;28;20042;-81
2024/01/21 12:01:33;;;;;;;9.98;6.28;;;4.20;99.90;;;;;;5093876;28;20035;-82
2024/01/21 12:04:01;;;;;;;13.40;5.63;;;4.20;99.90;;;;;;5051985;28;1167079;-81
2024/01/21 12:06:29;;;;;;;10.25;6.05;;;4.20;99.90;;;;;;5120890;28;20040;-79
2024/01/21 12:08:55;;;;;;;7.22;5.43;;;4.20;99.90;;;;;;5101290;28;20046;-78
2024/01/21 12:11:20;;;;;;;9.10;5.38;;;4.20;99.90;;;;;;5107392;28;20028;-79
2024/01/21 12:13:46;;;;;;;11.63;6.85;;;4.20;99.90;;;;;;5121406;28;20039;-79
2024/01/21 12:16:13;;;;;;;11.00;6.07;;;4.10;99.90;;;;;;5110670;28;20051;-81
2024/01/21 12:18:43;;;;;;;11.60;5.07;;;4.10;99.90;;;;;;5109050;28;20039;-80
2024/01/21 12:21:15;;;;;;;12.65;5.50;;;4.10;99.90;;;;;;5111513;28;20053;-82
2024/01/21 12:23:43;;;;;;;10.52;6.30;;;4.10;99.90;;;;;;5112798;28;20043;-81
2024/01/21 12:26:09;;;;;;;11.98;6.38;;;4.10;99.90;;;;;;5129542;28;20040;-81
2024/01/21 12:28:34;;;;;;;9.43;5.70;;;4.00;99.90;;;;;;5094823;28;20121;-82
2024/01/21 12:31:00;;;;;;;8.05;6.35;;;4.10;99.90;;;;;;5131830;28;20061;-81
2024/01/21 12:33:26;;;;;;;9.52;6.07;;;4.00;99.90;;;;;;5131570;28;20087;-80
2024/01/21 12:35:52;;;;;;;9.77;6.00;;;4.10;99.90;;;;;;5096544;28;20023;-81
2024/01/21 12:38:18;;;;;;;10.35;6.10;;;4.10;99.90;;;;;;5110884;28;20498;-84
2024/01/21 12:40:44;;;;;;;11.40;6.57;;;4.10;99.90;;;;;;5096014;28;20043;-82
2024/01/21 12:43:10;;;;;;;12.98;7.05;;;4.10;99.90;;;;;;5129954;28;20036;-82
2024/01/21 12:45:36;;;;;;;11.07;6.15;;;4.10;99.90;;;;;;5111207;28;20101;-83
2024/01/21 12:48:03;;;;;;;12.23;6.43;;;4.10;99.90;;;;;;5128371;28;20080;-81
2024/01/21 12:50:30;;;;;;;10.18;6.22;;;4.20;99.90;;;;;;5109858;28;20035;-82